Terminal Aerodrome Forecast
Issued by NWS

Home | Current Version | Previous Version | Text Only | Print | Product List | Glossary On
Versions: 1 2 3 4 5 6 7 8 9 10 11 12 13 14 15 16 17 18
000
FTUS43 KAPX 241735
TAFPLN
TAF
KPLN 241735Z 2418/2518 12004KT P6SM SCT040 BKN080
     FM250500 10015G26KT P6SM VCSH OVC035 WS020/13045KT
     FM250600 10016G28KT P6SM -SNRA OVC020 WS020/13050KT
     FM250700 11017G28KT P6SM -RA OVC015 WS020/13050KT
     FM251100 17015G26KT 3SM -RA OVC008 WS020/18045KT
     FM251200 18014G26KT P6SM OVC008 WS020/22045KT
     FM251500 24023G41KT P6SM BKN020 WS020/24050KT
     FM251700 24024G41KT P6SM BKN045 WS012/24030KT=

USA.gov is the U.S. government's official web portal to all federal, state and local government web resources and services.